Airport ID:KGNG
Update Time (UTC):01/07/2022 07:55
Wind Speed (Knots):10
Wind Direction (Magnetic):80
Temperature (°C):20
Dew Point (°C):0
Humidity (%):26
Altimeter (inHg):29.98
Density Altitude (Feet):5200
Visibility:10+
Clouds (Hundreds of feet):FEW060
Present Weather:
METAR:METAR KGNG 010755Z AUTO 10010KT 10SM FEW060 20/00 A2998 RMK AO2

The data displayed is for advisory purposes only and is not to be used for flight planning or operations.